sensor_id;sensor_type;location;lat;lon;timestamp;pressure;altitude;pressure_sealevel;temperature;humidity
74163;BME280;62515;52.758;5.076;2023-07-20T00:02:05;101591.16;;;13.48;100.00
74163;BME280;62515;52.758;5.076;2023-07-20T00:04:32;101590.53;;;13.44;100.00
74163;BME280;62515;52.758;5.076;2023-07-20T00:06:59;101588.59;;;13.34;100.00
74163;BME280;62515;52.758;5.076;2023-07-20T00:09:26;101593.41;;;13.41;100.00
74163;BME280;62515;52.758;5.076;2023-07-20T00:11:54;101601.66;;;13.38;100.00
74163;BME280;62515;52.758;5.076;2023-07-20T00:14:21;101600.06;;;13.36;100.00
74163;BME280;62515;52.758;5.076;2023-07-20T00:16:50;101601.97;;;13.34;100.00
74163;BME280;62515;52.758;5.076;2023-07-20T00:19:17;101601.97;;;13.34;100.00
74163;BME280;62515;52.758;5.076;2023-07-20T00:21:44;101601.91;;;13.23;100.00
74163;BME280;62515;52.758;5.076;2023-07-20T00:24:11;101603.38;;;13.27;100.00
74163;BME280;62515;52.758;5.076;2023-07-20T00:26:37;101602.31;;;13.29;100.00
74163;BME280;62515;52.758;5.076;2023-07-20T00:29:06;101607.88;;;13.26;100.00
74163;BME280;62515;52.758;5.076;2023-07-20T00:31:32;101601.03;;;13.22;100.00
74163;BME280;62515;52.758;5.076;2023-07-20T00:33:59;101602.75;;;13.23;100.00
74163;BME280;62515;52.758;5.076;2023-07-20T00:36:26;101606.47;;;13.21;100.00
74163;BME280;62515;52.758;5.076;2023-07-20T00:38:53;101605.75;;;13.19;100.00
74163;BME280;62515;52.758;5.076;2023-07-20T00:41:20;101607.69;;;13.17;100.00
74163;BME280;62515;52.758;5.076;2023-07-20T00:43:46;101595.50;;;13.13;100.00
74163;BME280;62515;52.758;5.076;2023-07-20T00:46:15;101600.06;;;13.10;100.00
74163;BME280;62515;52.758;5.076;2023-07-20T00:48:42;101603.78;;;13.08;100.00
74163;BME280;62515;52.758;5.076;2023-07-20T00:51:09;101607.63;;;13.04;100.00
74163;BME280;62515;52.758;5.076;2023-07-20T00:53:38;101604.53;;;12.97;100.00
74163;BME280;62515;52.758;5.076;2023-07-20T00:56:05;101605.50;;;12.96;100.00
74163;BME280;62515;52.758;5.076;2023-07-20T00:58:34;101606.66;;;12.92;100.00
74163;BME280;62515;52.758;5.076;2023-07-20T01:01:01;101608.69;;;12.89;100.00
74163;BME280;62515;52.758;5.076;2023-07-20T01:03:29;101606.16;;;12.87;100.00
74163;BME280;62515;52.758;5.076;2023-07-20T01:06:02;101609.97;;;12.83;100.00
74163;BME280;62515;52.758;5.076;2023-07-20T01:08:35;101602.59;;;12.74;100.00
74163;BME280;62515;52.758;5.076;2023-07-20T01:11:10;101608.25;;;12.70;100.00
74163;BME280;62515;52.758;5.076;2023-07-20T01:13:40;101604.19;;;12.64;100.00
74163;BME280;62515;52.758;5.076;2023-07-20T01:16:06;101607.16;;;12.59;100.00
74163;BME280;62515;52.758;5.076;2023-07-20T01:18:35;101607.38;;;12.56;100.00
74163;BME280;62515;52.758;5.076;2023-07-20T01:21:05;101589.59;;;12.43;100.00
74163;BME280;62515;52.758;5.076;2023-07-20T01:24:03;101599.34;;;12.44;100.00
74163;BME280;62515;52.758;5.076;2023-07-20T01:26:53;101596.88;;;12.41;100.00
74163;BME280;62515;52.758;5.076;2023-07-20T01:29:39;101586.81;;;12.32;100.00
74163;BME280;62515;52.758;5.076;2023-07-20T01:32:11;101598.16;;;12.35;100.00
74163;BME280;62515;52.758;5.076;2023-07-20T01:34:39;101595.97;;;12.28;100.00
74163;BME280;62515;52.758;5.076;2023-07-20T01:37:10;101593.94;;;12.19;100.00
74163;BME280;62515;52.758;5.076;2023-07-20T01:39:37;101584.19;;;12.18;100.00
74163;BME280;62515;52.758;5.076;2023-07-20T01:42:05;101584.16;;;12.05;100.00
74163;BME280;62515;52.758;5.076;2023-07-20T01:44:32;101579.91;;;12.02;100.00
74163;BME280;62515;52.758;5.076;2023-07-20T01:46:59;101582.00;;;11.97;100.00
74163;BME280;62515;52.758;5.076;2023-07-20T01:49:27;101577.72;;;11.95;100.00
74163;BME280;62515;52.758;5.076;2023-07-20T01:51:54;101584.78;;;11.96;100.00
74163;BME280;62515;52.758;5.076;2023-07-20T01:54:20;101578.13;;;11.89;100.00
74163;BME280;62515;52.758;5.076;2023-07-20T01:56:48;101573.06;;;11.84;100.00
74163;BME280;62515;52.758;5.076;2023-07-20T01:59:14;101581.06;;;11.84;100.00
74163;BME280;62515;52.758;5.076;2023-07-20T02:01:41;101597.28;;;11.81;100.00
74163;BME280;62515;52.758;5.076;2023-07-20T02:04:08;101593.00;;;11.79;100.00
74163;BME280;62515;52.758;5.076;2023-07-20T02:06:37;101578.72;;;11.80;100.00
74163;BME280;62515;52.758;5.076;2023-07-20T02:09:03;101591.19;;;11.79;100.00
74163;BME280;62515;52.758;5.076;2023-07-20T02:11:30;101590.75;;;11.73;100.00
74163;BME280;62515;52.758;5.076;2023-07-20T02:13:57;101589.75;;;11.74;100.00
74163;BME280;62515;52.758;5.076;2023-07-20T02:16:24;101582.06;;;11.69;100.00
74163;BME280;62515;52.758;5.076;2023-07-20T02:18:52;101584.91;;;11.66;100.00
74163;BME280;62515;52.758;5.076;2023-07-20T02:21:19;101594.06;;;11.62;100.00
74163;BME280;62515;52.758;5.076;2023-07-20T02:23:47;101594.91;;;11.63;100.00
74163;BME280;62515;52.758;5.076;2023-07-20T02:26:14;101586.06;;;11.62;100.00
74163;BME280;62515;52.758;5.076;2023-07-20T02:28:41;101586.25;;;11.59;100.00
74163;BME280;62515;52.758;5.076;2023-07-20T02:31:07;101582.84;;;11.57;100.00
74163;BME280;62515;52.758;5.076;2023-07-20T02:33:34;101583.50;;;11.61;100.00
74163;BME280;62515;52.758;5.076;2023-07-20T02:36:01;101584.53;;;11.58;100.00
74163;BME280;62515;52.758;5.076;2023-07-20T02:38:28;101585.41;;;11.59;100.00
74163;BME280;62515;52.758;5.076;2023-07-20T02:40:56;101595.41;;;11.55;100.00
74163;BME280;62515;52.758;5.076;2023-07-20T02:43:23;101594.84;;;11.50;100.00
74163;BME280;62515;52.758;5.076;2023-07-20T02:45:50;101568.31;;;11.34;100.00
74163;BME280;62515;52.758;5.076;2023-07-20T02:48:17;101592.25;;;11.48;100.00
74163;BME280;62515;52.758;5.076;2023-07-20T02:50:44;101593.78;;;11.52;100.00
74163;BME280;62515;52.758;5.076;2023-07-20T02:53:10;101597.72;;;11.47;100.00
74163;BME280;62515;52.758;5.076;2023-07-20T02:55:37;101600.84;;;11.39;100.00
74163;BME280;62515;52.758;5.076;2023-07-20T02:58:05;101605.91;;;11.30;100.00
74163;BME280;62515;52.758;5.076;2023-07-20T03:00:32;101602.00;;;11.21;100.00
74163;BME280;62515;52.758;5.076;2023-07-20T03:02:59;101602.19;;;11.18;100.00
74163;BME280;62515;52.758;5.076;2023-07-20T03:05:26;101598.28;;;11.10;100.00
74163;BME280;62515;52.758;5.076;2023-07-20T03:07:55;101601.06;;;11.08;100.00
74163;BME280;62515;52.758;5.076;2023-07-20T03:10:22;101609.13;;;11.07;100.00
74163;BME280;62515;52.758;5.076;2023-07-20T03:12:48;101614.44;;;11.07;100.00
74163;BME280;62515;52.758;5.076;2023-07-20T03:15:17;101620.56;;;11.09;100.00
74163;BME280;62515;52.758;5.076;2023-07-20T03:17:43;101619.59;;;11.10;100.00
74163;BME280;62515;52.758;5.076;2023-07-20T03:20:11;101601.09;;;10.92;100.00
74163;BME280;62515;52.758;5.076;2023-07-20T03:22:38;101622.56;;;11.05;100.00
74163;BME280;62515;52.758;5.076;2023-07-20T03:25:05;101632.34;;;11.05;100.00
74163;BME280;62515;52.758;5.076;2023-07-20T03:27:32;101637.47;;;11.08;100.00
74163;BME280;62515;52.758;5.076;2023-07-20T03:30:01;101631.28;;;11.07;100.00
74163;BME280;62515;52.758;5.076;2023-07-20T03:32:29;101641.09;;;11.07;100.00
74163;BME280;62515;52.758;5.076;2023-07-20T03:34:56;101636.63;;;11.07;100.00
74163;BME280;62515;52.758;5.076;2023-07-20T03:37:23;101638.22;;;11.10;100.00
74163;BME280;62515;52.758;5.076;2023-07-20T03:39:50;101635.94;;;11.03;100.00
74163;BME280;62515;52.758;5.076;2023-07-20T03:42:16;101634.59;;;10.96;100.00
74163;BME280;62515;52.758;5.076;2023-07-20T03:44:43;101637.44;;;10.93;100.00
74163;BME280;62515;52.758;5.076;2023-07-20T03:47:10;101626.25;;;10.88;100.00
74163;BME280;62515;52.758;5.076;2023-07-20T03:49:38;101636.69;;;10.91;100.00
74163;BME280;62515;52.758;5.076;2023-07-20T03:52:05;101626.13;;;10.76;100.00
74163;BME280;62515;52.758;5.076;2023-07-20T03:54:32;101646.88;;;10.85;100.00
74163;BME280;62515;52.758;5.076;2023-07-20T03:56:59;101638.75;;;10.86;100.00
74163;BME280;62515;52.758;5.076;2023-07-20T03:59:26;101618.97;;;10.76;100.00
74163;BME280;62515;52.758;5.076;2023-07-20T04:01:53;101637.25;;;10.82;100.00
74163;BME280;62515;52.758;5.076;2023-07-20T04:04:20;101633.81;;;10.80;100.00
74163;BME280;62515;52.758;5.076;2023-07-20T04:06:48;101629.91;;;10.72;100.00
74163;BME280;62515;52.758;5.076;2023-07-20T04:09:15;101629.22;;;10.68;100.00
74163;BME280;62515;52.758;5.076;2023-07-20T04:11:42;101635.50;;;10.67;100.00
74163;BME280;62515;52.758;5.076;2023-07-20T04:14:09;101635.31;;;10.70;100.00
74163;BME280;62515;52.758;5.076;2023-07-20T04:16:36;101626.75;;;10.65;100.00
74163;BME280;62515;52.758;5.076;2023-07-20T04:19:02;101634.72;;;10.65;100.00
74163;BME280;62515;52.758;5.076;2023-07-20T04:21:29;101636.47;;;10.66;100.00
74163;BME280;62515;52.758;5.076;2023-07-20T04:23:58;101637.28;;;10.67;100.00
74163;BME280;62515;52.758;5.076;2023-07-20T04:26:24;101630.78;;;10.72;100.00
74163;BME280;62515;52.758;5.076;2023-07-20T04:28:51;101633.13;;;10.77;100.00
74163;BME280;62515;52.758;5.076;2023-07-20T04:31:32;101638.19;;;10.81;100.00
74163;BME280;62515;52.758;5.076;2023-07-20T04:33:58;101629.47;;;10.79;100.00
74163;BME280;62515;52.758;5.076;2023-07-20T04:36:26;101630.78;;;10.86;100.00
74163;BME280;62515;52.758;5.076;2023-07-20T04:38:53;101628.97;;;10.87;100.00
74163;BME280;62515;52.758;5.076;2023-07-20T04:41:23;101640.03;;;10.95;100.00
74163;BME280;62515;52.758;5.076;2023-07-20T04:43:51;101639.94;;;10.96;100.00
74163;BME280;62515;52.758;5.076;2023-07-20T04:46:24;101624.91;;;10.95;100.00
74163;BME280;62515;52.758;5.076;2023-07-20T04:48:53;101656.69;;;11.13;100.00
74163;BME280;62515;52.758;5.076;2023-07-20T04:51:21;101652.41;;;11.10;100.00
74163;BME280;62515;52.758;5.076;2023-07-20T04:53:50;101649.75;;;11.10;100.00
74163;BME280;62515;52.758;5.076;2023-07-20T04:56:17;101647.94;;;11.11;100.00
74163;BME280;62515;52.758;5.076;2023-07-20T04:58:46;101650.63;;;11.25;100.00
74163;BME280;62515;52.758;5.076;2023-07-20T05:01:13;101651.94;;;11.32;100.00
74163;BME280;62515;52.758;5.076;2023-07-20T05:03:42;101667.38;;;11.55;100.00
74163;BME280;62515;52.758;5.076;2023-07-20T05:06:09;101663.69;;;11.72;100.00
74163;BME280;62515;52.758;5.076;2023-07-20T05:08:36;101669.00;;;11.86;100.00
74163;BME280;62515;52.758;5.076;2023-07-20T05:11:03;101661.47;;;11.92;100.00
74163;BME280;62515;52.758;5.076;2023-07-20T05:13:30;101660.88;;;12.01;100.00
74163;BME280;62515;52.758;5.076;2023-07-20T05:15:58;101660.97;;;12.00;100.00
74163;BME280;62515;52.758;5.076;2023-07-20T05:18:28;101664.69;;;11.97;100.00
74163;BME280;62515;52.758;5.076;2023-07-20T05:20:55;101672.28;;;12.03;100.00
74163;BME280;62515;52.758;5.076;2023-07-20T05:23:22;101664.06;;;12.21;100.00
74163;BME280;62515;52.758;5.076;2023-07-20T05:25:54;101672.59;;;12.26;100.00
74163;BME280;62515;52.758;5.076;2023-07-20T05:28:21;101670.59;;;12.29;100.00
74163;BME280;62515;52.758;5.076;2023-07-20T05:30:47;101668.38;;;12.36;100.00
74163;BME280;62515;52.758;5.076;2023-07-20T05:33:20;101668.75;;;12.44;100.00
74163;BME280;62515;52.758;5.076;2023-07-20T05:35:47;101660.25;;;12.51;100.00
74163;BME280;62515;52.758;5.076;2023-07-20T05:38:14;101669.59;;;12.71;100.00
74163;BME280;62515;52.758;5.076;2023-07-20T05:40:42;101667.88;;;12.83;100.00
74163;BME280;62515;52.758;5.076;2023-07-20T05:43:09;101665.09;;;12.84;100.00
74163;BME280;62515;52.758;5.076;2023-07-20T05:45:35;101664.50;;;12.93;100.00
74163;BME280;62515;52.758;5.076;2023-07-20T05:48:03;101664.16;;;12.98;100.00
74163;BME280;62515;52.758;5.076;2023-07-20T05:50:31;101668.56;;;12.99;100.00
74163;BME280;62515;52.758;5.076;2023-07-20T05:52:58;101671.88;;;13.02;100.00
74163;BME280;62515;52.758;5.076;2023-07-20T05:55:25;101660.22;;;13.03;100.00
74163;BME280;62515;52.758;5.076;2023-07-20T05:57:51;101667.53;;;13.14;100.00
74163;BME280;62515;52.758;5.076;2023-07-20T06:00:19;101662.59;;;13.21;100.00
74163;BME280;62515;52.758;5.076;2023-07-20T06:02:46;101655.66;;;13.18;100.00
74163;BME280;62515;52.758;5.076;2023-07-20T06:05:13;101666.13;;;13.34;100.00
74163;BME280;62515;52.758;5.076;2023-07-20T06:07:41;101667.41;;;13.41;100.00
74163;BME280;62515;52.758;5.076;2023-07-20T06:10:08;101666.78;;;13.50;100.00
74163;BME280;62515;52.758;5.076;2023-07-20T06:12:35;101665.16;;;13.60;100.00
74163;BME280;62515;52.758;5.076;2023-07-20T06:15:02;101671.78;;;13.67;100.00
74163;BME280;62515;52.758;5.076;2023-07-20T06:17:29;101664.41;;;13.71;100.00
74163;BME280;62515;52.758;5.076;2023-07-20T06:19:56;101661.50;;;13.74;100.00
74163;BME280;62515;52.758;5.076;2023-07-20T06:22:23;101656.88;;;13.76;100.00
74163;BME280;62515;52.758;5.076;2023-07-20T06:24:51;101661.19;;;13.78;100.00
74163;BME280;62515;52.758;5.076;2023-07-20T06:27:18;101661.69;;;13.83;100.00
74163;BME280;62515;52.758;5.076;2023-07-20T06:29:45;101642.75;;;13.86;100.00
74163;BME280;62515;52.758;5.076;2023-07-20T06:32:12;101647.19;;;13.98;100.00
74163;BME280;62515;52.758;5.076;2023-07-20T06:34:39;101650.19;;;14.06;100.00
74163;BME280;62515;52.758;5.076;2023-07-20T06:37:05;101642.16;;;14.06;100.00
74163;BME280;62515;52.758;5.076;2023-07-20T06:39:32;101642.41;;;14.14;100.00
74163;BME280;62515;52.758;5.076;2023-07-20T06:42:04;101643.47;;;14.25;100.00
74163;BME280;62515;52.758;5.076;2023-07-20T06:44:31;101644.09;;;14.28;100.00
74163;BME280;62515;52.758;5.076;2023-07-20T06:46:58;101647.72;;;14.40;100.00
74163;BME280;62515;52.758;5.076;2023-07-20T06:49:25;101639.72;;;14.51;100.00
74163;BME280;62515;52.758;5.076;2023-07-20T06:51:52;101641.25;;;14.66;100.00
74163;BME280;62515;52.758;5.076;2023-07-20T06:54:19;101641.41;;;14.76;100.00
74163;BME280;62515;52.758;5.076;2023-07-20T06:56:49;101641.94;;;14.92;100.00
74163;BME280;62515;52.758;5.076;2023-07-20T06:59:37;101628.69;;;15.12;100.00
74163;BME280;62515;52.758;5.076;2023-07-20T07:02:08;101642.53;;;15.52;100.00
74163;BME280;62515;52.758;5.076;2023-07-20T07:04:40;101651.03;;;15.91;100.00
74163;BME280;62515;52.758;5.076;2023-07-20T07:07:07;101613.38;;;16.13;100.00
74163;BME280;62515;52.758;5.076;2023-07-20T07:09:34;101624.44;;;16.31;100.00
74163;BME280;62515;52.758;5.076;2023-07-20T07:12:01;101643.22;;;16.42;100.00
74163;BME280;62515;52.758;5.076;2023-07-20T07:14:29;101647.66;;;16.32;100.00
74163;BME280;62515;52.758;5.076;2023-07-20T07:16:57;101660.13;;;16.21;100.00
74163;BME280;62515;52.758;5.076;2023-07-20T07:19:25;101657.50;;;15.99;100.00
74163;BME280;62515;52.758;5.076;2023-07-20T07:21:52;101668.50;;;15.74;100.00
74163;BME280;62515;52.758;5.076;2023-07-20T07:24:19;101669.94;;;15.34;100.00
74163;BME280;62515;52.758;5.076;2023-07-20T07:26:46;101687.03;;;14.98;100.00
74163;BME280;62515;52.758;5.076;2023-07-20T07:29:12;101673.66;;;14.63;100.00
74163;BME280;62515;52.758;5.076;2023-07-20T07:31:39;101695.28;;;14.60;100.00
74163;BME280;62515;52.758;5.076;2023-07-20T07:34:07;101695.88;;;14.52;100.00
74163;BME280;62515;52.758;5.076;2023-07-20T07:36:34;101691.94;;;14.45;100.00
74163;BME280;62515;52.758;5.076;2023-07-20T07:39:01;101680.59;;;14.29;100.00
74163;BME280;62515;52.758;5.076;2023-07-20T07:41:48;101696.88;;;14.39;100.00
74163;BME280;62515;52.758;5.076;2023-07-20T07:44:15;101692.72;;;14.35;100.00
74163;BME280;62515;52.758;5.076;2023-07-20T07:46:41;101701.91;;;14.43;100.00
74163;BME280;62515;52.758;5.076;2023-07-20T07:49:10;101702.97;;;14.64;100.00
74163;BME280;62515;52.758;5.076;2023-07-20T07:51:36;101697.00;;;14.96;100.00
74163;BME280;62515;52.758;5.076;2023-07-20T07:54:04;101689.03;;;15.29;100.00
74163;BME280;62515;52.758;5.076;2023-07-20T07:56:31;101702.66;;;15.72;100.00
74163;BME280;62515;52.758;5.076;2023-07-20T07:58:58;101695.56;;;15.93;100.00
74163;BME280;62515;52.758;5.076;2023-07-20T08:01:24;101697.66;;;15.79;100.00
74163;BME280;62515;52.758;5.076;2023-07-20T08:03:51;101682.19;;;15.60;100.00
74163;BME280;62515;52.758;5.076;2023-07-20T08:06:20;101697.88;;;15.64;100.00
74163;BME280;62515;52.758;5.076;2023-07-20T08:08:47;101676.06;;;15.69;100.00
74163;BME280;62515;52.758;5.076;2023-07-20T08:11:14;101692.53;;;15.98;100.00
74163;BME280;62515;52.758;5.076;2023-07-20T08:13:41;101691.25;;;16.24;100.00
74163;BME280;62515;52.758;5.076;2023-07-20T08:16:08;101691.13;;;16.68;100.00
74163;BME280;62515;52.758;5.076;2023-07-20T08:18:35;101685.63;;;17.02;100.00
74163;BME280;62515;52.758;5.076;2023-07-20T08:21:02;101684.94;;;17.30;100.00
74163;BME280;62515;52.758;5.076;2023-07-20T08:23:30;101687.19;;;17.46;100.00
74163;BME280;62515;52.758;5.076;2023-07-20T08:25:57;101685.78;;;17.51;100.00
74163;BME280;62515;52.758;5.076;2023-07-20T08:28:24;101683.47;;;17.47;100.00
74163;BME280;62515;52.758;5.076;2023-07-20T08:30:50;101687.66;;;17.09;100.00
74163;BME280;62515;52.758;5.076;2023-07-20T08:33:18;101686.16;;;16.64;100.00
74163;BME280;62515;52.758;5.076;2023-07-20T08:35:46;101686.25;;;16.19;100.00
74163;BME280;62515;52.758;5.076;2023-07-20T08:38:13;101685.56;;;15.84;100.00
74163;BME280;62515;52.758;5.076;2023-07-20T08:40:43;101695.81;;;15.68;100.00
74163;BME280;62515;52.758;5.076;2023-07-20T08:43:10;101693.53;;;15.63;100.00
74163;BME280;62515;52.758;5.076;2023-07-20T08:45:39;101706.19;;;15.73;100.00
74163;BME280;62515;52.758;5.076;2023-07-20T08:48:07;101705.59;;;15.69;100.00
74163;BME280;62515;52.758;5.076;2023-07-20T08:50:37;101692.41;;;15.55;100.00
74163;BME280;62515;52.758;5.076;2023-07-20T08:53:05;101707.78;;;15.75;100.00
74163;BME280;62515;52.758;5.076;2023-07-20T08:55:33;101709.88;;;15.83;100.00
74163;BME280;62515;52.758;5.076;2023-07-20T08:58:02;101706.53;;;15.90;100.00
74163;BME280;62515;52.758;5.076;2023-07-20T09:00:29;101713.63;;;15.91;100.00
74163;BME280;62515;52.758;5.076;2023-07-20T09:02:57;101722.53;;;15.81;100.00
74163;BME280;62515;52.758;5.076;2023-07-20T09:05:25;101730.47;;;15.71;100.00
74163;BME280;62515;52.758;5.076;2023-07-20T09:07:56;101705.81;;;15.55;100.00
74163;BME280;62515;52.758;5.076;2023-07-20T09:10:23;101725.34;;;15.57;100.00
74163;BME280;62515;52.758;5.076;2023-07-20T09:12:51;101721.91;;;15.55;100.00
74163;BME280;62515;52.758;5.076;2023-07-20T09:15:19;101725.28;;;15.46;100.00
74163;BME280;62515;52.758;5.076;2023-07-20T09:17:47;101721.13;;;15.42;100.00
74163;BME280;62515;52.758;5.076;2023-07-20T09:20:15;101723.25;;;15.49;100.00
74163;BME280;62515;52.758;5.076;2023-07-20T09:22:42;101724.25;;;15.59;100.00
74163;BME280;62515;52.758;5.076;2023-07-20T09:25:11;101713.88;;;15.77;100.00
74163;BME280;62515;52.758;5.076;2023-07-20T09:27:41;101714.28;;;16.60;100.00
74163;BME280;62515;52.758;5.076;2023-07-20T09:30:10;101704.88;;;17.48;100.00
74163;BME280;62515;52.758;5.076;2023-07-20T09:32:46;101711.84;;;17.71;100.00
74163;BME280;62515;52.758;5.076;2023-07-20T09:35:17;101700.34;;;18.00;100.00
74163;BME280;62515;52.758;5.076;2023-07-20T09:37:50;101703.06;;;18.97;100.00
74163;BME280;62515;52.758;5.076;2023-07-20T09:40:19;101686.53;;;19.19;100.00
74163;BME280;62515;52.758;5.076;2023-07-20T09:42:46;101694.41;;;18.74;100.00
74163;BME280;62515;52.758;5.076;2023-07-20T09:45:33;101705.31;;;18.04;100.00
74163;BME280;62515;52.758;5.076;2023-07-20T09:48:05;101701.88;;;17.62;100.00
74163;BME280;62515;52.758;5.076;2023-07-20T09:50:39;101701.88;;;17.42;100.00
74163;BME280;62515;52.758;5.076;2023-07-20T09:53:09;101710.75;;;17.33;100.00
74163;BME280;62515;52.758;5.076;2023-07-20T09:55:40;101710.75;;;17.12;100.00
74163;BME280;62515;52.758;5.076;2023-07-20T09:58:08;101714.19;;;16.82;100.00
74163;BME280;62515;52.758;5.076;2023-07-20T10:00:36;101702.56;;;16.61;100.00
74163;BME280;62515;52.758;5.076;2023-07-20T10:03:09;101709.13;;;16.46;100.00
74163;BME280;62515;52.758;5.076;2023-07-20T10:05:39;101710.13;;;16.56;100.00
74163;BME280;62515;52.758;5.076;2023-07-20T10:08:09;101712.53;;;16.70;100.00
74163;BME280;62515;52.758;5.076;2023-07-20T10:10:41;101701.72;;;16.81;100.00
74163;BME280;62515;52.758;5.076;2023-07-20T10:13:10;101706.53;;;16.98;100.00
74163;BME280;62515;52.758;5.076;2023-07-20T10:15:43;101703.56;;;17.01;100.00
74163;BME280;62515;52.758;5.076;2023-07-20T10:18:18;101703.31;;;17.04;100.00
74163;BME280;62515;52.758;5.076;2023-07-20T10:20:50;101712.69;;;17.31;100.00
74163;BME280;62515;52.758;5.076;2023-07-20T10:23:21;101715.13;;;17.54;100.00
74163;BME280;62515;52.758;5.076;2023-07-20T10:25:48;101707.78;;;17.87;100.00
74163;BME280;62515;52.758;5.076;2023-07-20T10:28:16;101709.59;;;18.16;100.00
74163;BME280;62515;52.758;5.076;2023-07-20T10:30:44;101691.97;;;19.00;100.00
74163;BME280;62515;52.758;5.076;2023-07-20T10:33:11;101690.53;;;19.15;100.00
74163;BME280;62515;52.758;5.076;2023-07-20T10:35:53;101690.38;;;19.26;100.00
74163;BME280;62515;52.758;5.076;2023-07-20T10:38:20;101684.19;;;18.68;100.00
74163;BME280;62515;52.758;5.076;2023-07-20T10:41:04;101691.13;;;18.71;100.00
74163;BME280;62515;52.758;5.076;2023-07-20T10:43:31;101692.50;;;20.06;100.00
74163;BME280;62515;52.758;5.076;2023-07-20T10:45:57;101685.38;;;20.60;100.00
74163;BME280;62515;52.758;5.076;2023-07-20T10:48:24;101687.63;;;21.00;100.00
74163;BME280;62515;52.758;5.076;2023-07-20T10:51:13;101693.13;;;20.55;100.00
74163;BME280;62515;52.758;5.076;2023-07-20T10:53:41;101691.44;;;20.26;100.00
74163;BME280;62515;52.758;5.076;2023-07-20T10:56:11;101685.97;;;20.09;100.00
74163;BME280;62515;52.758;5.076;2023-07-20T10:58:38;101687.06;;;20.16;100.00
74163;BME280;62515;52.758;5.076;2023-07-20T11:01:05;101681.31;;;21.34;100.00
74163;BME280;62515;52.758;5.076;2023-07-20T11:03:34;101680.88;;;22.89;100.00
74163;BME280;62515;52.758;5.076;2023-07-20T11:06:32;101693.41;;;23.63;100.00
74163;BME280;62515;52.758;5.076;2023-07-20T11:09:05;101683.03;;;24.05;100.00
74163;BME280;62515;52.758;5.076;2023-07-20T11:11:35;101678.09;;;23.70;100.00
74163;BME280;62515;52.758;5.076;2023-07-20T11:14:04;101663.91;;;24.52;100.00
74163;BME280;62515;52.758;5.076;2023-07-20T11:16:36;101681.72;;;25.08;100.00
74163;BME280;62515;52.758;5.076;2023-07-20T11:19:03;101677.03;;;25.69;100.00
74163;BME280;62515;52.758;5.076;2023-07-20T11:21:36;101669.94;;;25.30;100.00
74163;BME280;62515;52.758;5.076;2023-07-20T11:24:17;101673.44;;;24.79;100.00
74163;BME280;62515;52.758;5.076;2023-07-20T11:26:46;101673.38;;;23.31;100.00
74163;BME280;62515;52.758;5.076;2023-07-20T11:29:13;101657.13;;;22.91;100.00
74163;BME280;62515;52.758;5.076;2023-07-20T11:31:56;101668.78;;;22.43;100.00
74163;BME280;62515;52.758;5.076;2023-07-20T11:34:24;101664.59;;;21.39;100.00
74163;BME280;62515;52.758;5.076;2023-07-20T11:36:52;101665.19;;;20.90;100.00
74163;BME280;62515;52.758;5.076;2023-07-20T11:39:23;101669.94;;;20.25;100.00
74163;BME280;62515;52.758;5.076;2023-07-20T11:41:51;101661.75;;;19.62;100.00
74163;BME280;62515;52.758;5.076;2023-07-20T11:44:18;101669.94;;;19.14;100.00
74163;BME280;62515;52.758;5.076;2023-07-20T11:46:45;101671.84;;;18.85;100.00
74163;BME280;62515;52.758;5.076;2023-07-20T11:49:12;101670.53;;;20.28;100.00
74163;BME280;62515;52.758;5.076;2023-07-20T11:51:40;101662.44;;;21.07;100.00
74163;BME280;62515;52.758;5.076;2023-07-20T11:54:08;101654.41;;;22.75;100.00
74163;BME280;62515;52.758;5.076;2023-07-20T11:56:35;101650.34;;;23.03;100.00
74163;BME280;62515;52.758;5.076;2023-07-20T11:59:02;101652.00;;;23.28;100.00
74163;BME280;62515;52.758;5.076;2023-07-20T12:01:29;101659.41;;;22.29;100.00
74163;BME280;62515;52.758;5.076;2023-07-20T12:03:57;101654.94;;;22.04;100.00
74163;BME280;62515;52.758;5.076;2023-07-20T12:06:25;101648.44;;;21.89;100.00
74163;BME280;62515;52.758;5.076;2023-07-20T12:08:55;101646.41;;;21.31;100.00
74163;BME280;62515;52.758;5.076;2023-07-20T12:11:34;101657.56;;;21.54;100.00
74163;BME280;62515;52.758;5.076;2023-07-20T12:14:02;101658.88;;;21.24;100.00
74163;BME280;62515;52.758;5.076;2023-07-20T12:16:43;101641.19;;;22.72;100.00
74163;BME280;62515;52.758;5.076;2023-07-20T12:19:13;101648.59;;;23.42;100.00
74163;BME280;62515;52.758;5.076;2023-07-20T12:21:41;101644.91;;;23.11;100.00
74163;BME280;62515;52.758;5.076;2023-07-20T12:24:08;101657.66;;;21.78;100.00
74163;BME280;62515;52.758;5.076;2023-07-20T12:26:38;101655.00;;;21.53;100.00
74163;BME280;62515;52.758;5.076;2023-07-20T12:29:05;101647.88;;;20.65;100.00
74163;BME280;62515;52.758;5.076;2023-07-20T12:31:34;101639.47;;;20.32;100.00
74163;BME280;62515;52.758;5.076;2023-07-20T12:34:03;101650.59;;;20.29;100.00
74163;BME280;62515;52.758;5.076;2023-07-20T12:36:30;101647.28;;;20.08;100.00
74163;BME280;62515;52.758;5.076;2023-07-20T12:38:57;101636.53;;;20.79;100.00
74163;BME280;62515;52.758;5.076;2023-07-20T12:41:23;101641.44;;;21.53;100.00
74163;BME280;62515;52.758;5.076;2023-07-20T12:43:52;101632.41;;;20.93;100.00
74163;BME280;62515;52.758;5.076;2023-07-20T12:46:18;101620.06;;;20.90;100.00
74163;BME280;62515;52.758;5.076;2023-07-20T12:48:45;101595.13;;;20.43;100.00